Ride Results

Kilmore 2 (24-06-2012)
Ride distance: 100.0 km Elevator

Outcomes - Kilmore 2 (24-06-2012)
Division No. of Entries Retired / DNE Completed Withdrawn Ineligible V/O Percentage Completed
HW 8 4 3 - - 1 87.50%
MW 16 9 5 1 - 1 87.50%
LW 10 5 4 - - 1 90.00%
JN 1 - 0 - - 1 0.00%
Totals 35 18 12 1 - 4 85.71%
Results - Kilmore 2 (24-06-2012)
No. Rider Horse Place Time Leg Speeds Total
Km/Hr
H/R bpm
Heavyweight
764 Andrew Bailey Aloha Delegate 1 (BC) 6:08:00 17.2, 16.3, 14.6 16.30 36, 48, 52, 50 (Avg:50)
762 Victoria Horton Miss X 2 6:16:00 17.2, 14.5, 16.6 15.96 38, 50, 47, 48 (Avg:48)
308 Melissa Cawthan Taylorsglen Renegade 3 8:36:00 14.2, 11.6, 8.4 11.63 34, 44, 47, 51 (Avg:47)
763 Tim Wall Musical Gully Samba Retired/DNE L2 7:16:00 11.9, 10.1 11.01 34, 39, 48 (Avg:43)
337 Allison Whitney Destined For Dubai Retired/DNE L2 7:16:00 11.9, 10.1 11.01 34, 35, 41 (Avg:38)
765 Jai Ingram Murphy Retired/DNE L2 7:39:00 11.1, 9.8 10.46 34, 43, 51 (Avg:47)
82 Jarrod Robinson Julian Retired/DNE L2 7:43:00 10.1, 10.5 10.37 38, 46, 57 (Avg:51)
241 Daniel Feltrin Jasmin Park Fame Lame L2 0:00:00 16.6, 14.8 - 42, 41, 48 (Avg:44)
Middleweight
300 Sue Baillie Cavanagh Felix 1 6:48:00 15.4, 16.3, 11.3 14.71 4, 41, 49, 45 (Avg:45)
770 Angelina Patterson Razorback Rimfire 2 7:02:00 14.2, 14.2, 14.1 14.22 37, 40, 48, 50 (Avg:46)
769 Ben Hudson Oso Last Eclipse 3 (BC) 7:04:00 15.0, 13.5, 13.6 14.15 44, 43, 41, 49 (Avg:44)
141 Jackie Drayton Clovelly Park Shandara 4 7:41:00 14.5, 13.9, 9.6 13.02 32, 46, 51, 57 (Avg:51)
227 Karen Vickers Allamir Mars 5 8:41:00 12.9, 12.6, 8.1 11.52 37, 45, 49, 49 (Avg:47)
56 Wendy Bootle Blue Bopp Retired/DNE L2 7:03:00 11.8, 10.8 11.35 36, 39, 49 (Avg:44)
799 Paul Bryson Pterion Rose Retired/DNE L2 7:03:00 12.3, 10.4 11.35 31, 50, 50 (Avg:50)
67 John Osboldstone Shakira Retired/DNE L2 7:07:00 11.9, 10.5 11.24 34, 36, 43 (Avg:39)
798 Nicole Pearson Passion Park Simba Retired/DNE L2 7:07:00 11.9, 10.5 11.24 43, 50, 51 (Avg:50)
77 Trish Reeves Brieema Bess Retired/DNE L2 7:16:00 11.9, 10.1 11.01 48, 48, 53 (Avg:50)
775 Kerri Kingston Mytkyina Retired/DNE L2 7:31:00 10.8, 10.4 10.64 35, 36, 47 (Avg:41)
155 Karen Alderton Bara Park Rosanne Retired/DNE L2 7:48:00 10.9, 9.6 10.26 42, 40, 44 (Avg:42)
796 Sheleah Astell Sandine Scando 1 Retired/DNE L2 7:48:00 10.9, 9.6 10.26 42, 44, 54 (Avg:49)
772 Jenny Berg Al-Marah Staro Parade Retired/DNE L2 8:24:00 9.6, 9.3 9.52 41, 42, 49 (Avg:45)
206 Tracy-Lee Feltrin Arinya Park Kla'saar Heart Rate L2 0:00:00 16.6, 14.8 - 35, 42, 73 (Avg:57)
797 Karen Patterson Tawaris Xanadu Withdrawn L2 0:00:00 - - 48, 40, 47 (Avg:43)
Lightweight
237 Sharyn Wyatt BJ 1 6:59:00 14.5, 15.0, 12.6 14.32 29, 43, 44, 49 (Avg:45)
773 Kate Gibson Oso Edith 2 (BC) 7:04:00 15.0, 13.5, 13.6 14.15 42, 40, 44, 46 (Avg:43)
208 Janeen Smith Pterion Leonardo 3 8:36:00 14.2, 11.6, 8.4 11.63 31, 42, 40, 40 (Avg:40)
91 Kim Noble Silhouette Tzar 4 9:11:00 10.9, 10.3, 11.9 10.89 36, 39, 48, 50 (Avg:45)
760 Marty Bryson Quintally Merlin Retired/DNE L2 7:03:00 12.3, 10.4 11.35 36, 39, 46 (Avg:42)
221 Susan Gill Horseplay Joby Retired/DNE L2 7:03:00 11.8, 10.8 11.35 48, 41, 45 (Avg:43)
771 Kerry Alderton Mireen Yasmeera Retired/DNE L2 7:16:00 11.2, 10.7 11.01 36, 44, 54 (Avg:49)
767 Madeleine Whyte Kelkette Park Silver Earl Retired/DNE L2 7:39:00 11.1, 9.8 10.46 38, 50, 59 (Avg:54)
774 Courtney Chapman Kordelassie Retired/DNE L2 8:24:00 9.6, 9.3 9.52 53, 42, 48 (Avg:45)
761 Tammy Woodgate Castlebar Galaxy Lame L2 0:00:00 12.9, 12.6 - 36, 40, 49 (Avg:44)
Junior
90 Samantha Noble Monkhani Lodge Nobles Locket Lame L2 0:00:00 10.9, 10.3 - 41, 48, 51 (Avg:49)